sensor_id;sensor_type;location;lat;lon;timestamp;temperature;humidity
68943;DHT22;60852;52.190;4.422;2023-01-19T00:01:35;6.10;82.27
68943;DHT22;60852;52.190;4.422;2023-01-19T00:04:00;5.95;82.48
68943;DHT22;60852;52.190;4.422;2023-01-19T00:06:26;5.86;82.08
68943;DHT22;60852;52.190;4.422;2023-01-19T00:08:51;5.85;82.14
68943;DHT22;60852;52.190;4.422;2023-01-19T00:11:17;5.84;82.53
68943;DHT22;60852;52.190;4.422;2023-01-19T00:13:43;5.91;82.50
68943;DHT22;60852;52.190;4.422;2023-01-19T00:16:15;5.86;83.20
68943;DHT22;60852;52.190;4.422;2023-01-19T00:18:43;5.96;83.51
68943;DHT22;60852;52.190;4.422;2023-01-19T00:21:08;6.05;83.76
68943;DHT22;60852;52.190;4.422;2023-01-19T00:23:34;5.79;84.48
68943;DHT22;60852;52.190;4.422;2023-01-19T00:25:59;5.76;83.70
68943;DHT22;60852;52.190;4.422;2023-01-19T00:28:25;5.68;83.27
68943;DHT22;60852;52.190;4.422;2023-01-19T00:30:50;5.71;83.56
68943;DHT22;60852;52.190;4.422;2023-01-19T00:33:16;5.62;83.53
68943;DHT22;60852;52.190;4.422;2023-01-19T00:35:42;5.51;83.70
68943;DHT22;60852;52.190;4.422;2023-01-19T00:38:07;5.58;84.27
68943;DHT22;60852;52.190;4.422;2023-01-19T00:40:33;5.65;84.37
68943;DHT22;60852;52.190;4.422;2023-01-19T00:42:58;5.66;84.29
68943;DHT22;60852;52.190;4.422;2023-01-19T00:45:24;5.74;84.13
68943;DHT22;60852;52.190;4.422;2023-01-19T00:47:50;5.76;83.61
68943;DHT22;60852;52.190;4.422;2023-01-19T00:50:23;5.61;83.42
68943;DHT22;60852;52.190;4.422;2023-01-19T00:52:48;5.68;83.67
68943;DHT22;60852;52.190;4.422;2023-01-19T00:55:14;5.71;83.06
68943;DHT22;60852;52.190;4.422;2023-01-19T00:57:40;5.71;82.55
68943;DHT22;60852;52.190;4.422;2023-01-19T01:00:16;5.64;82.53
68943;DHT22;60852;52.190;4.422;2023-01-19T01:02:42;5.62;82.18
68943;DHT22;60852;52.190;4.422;2023-01-19T01:05:09;5.55;82.57
68943;DHT22;60852;52.190;4.422;2023-01-19T01:07:36;5.52;82.64
68943;DHT22;60852;52.190;4.422;2023-01-19T01:10:21;5.59;83.01
68943;DHT22;60852;52.190;4.422;2023-01-19T01:12:48;5.48;83.12
68943;DHT22;60852;52.190;4.422;2023-01-19T01:15:15;5.55;83.45
68943;DHT22;60852;52.190;4.422;2023-01-19T01:17:41;5.52;83.19
68943;DHT22;60852;52.190;4.422;2023-01-19T01:20:14;5.51;82.74
68943;DHT22;60852;52.190;4.422;2023-01-19T01:22:41;5.51;82.57
68943;DHT22;60852;52.190;4.422;2023-01-19T01:25:11;5.40;82.81
68943;DHT22;60852;52.190;4.422;2023-01-19T01:27:36;5.40;82.73
68943;DHT22;60852;52.190;4.422;2023-01-19T01:30:02;5.28;82.94
68943;DHT22;60852;52.190;4.422;2023-01-19T01:32:28;5.19;83.33
68943;DHT22;60852;52.190;4.422;2023-01-19T01:34:53;5.13;83.83
68943;DHT22;60852;52.190;4.422;2023-01-19T01:37:19;5.27;83.70
68943;DHT22;60852;52.190;4.422;2023-01-19T01:39:44;5.34;83.67
68943;DHT22;60852;52.190;4.422;2023-01-19T01:42:15;5.41;83.91
68943;DHT22;60852;52.190;4.422;2023-01-19T01:44:51;5.31;84.12
68943;DHT22;60852;52.190;4.422;2023-01-19T01:47:30;5.30;84.47
68943;DHT22;60852;52.190;4.422;2023-01-19T01:50:07;5.33;84.84
68943;DHT22;60852;52.190;4.422;2023-01-19T01:52:38;5.41;84.68
68943;DHT22;60852;52.190;4.422;2023-01-19T01:55:05;5.43;83.76
68943;DHT22;60852;52.190;4.422;2023-01-19T01:57:36;5.36;83.62
68943;DHT22;60852;52.190;4.422;2023-01-19T02:00:05;5.20;84.37
68943;DHT22;60852;52.190;4.422;2023-01-19T02:02:34;5.19;84.99
68943;DHT22;60852;52.190;4.422;2023-01-19T02:05:34;5.34;84.76
68943;DHT22;60852;52.190;4.422;2023-01-19T02:08:18;5.41;84.54
68943;DHT22;60852;52.190;4.422;2023-01-19T02:11:03;5.44;83.62
68943;DHT22;60852;52.190;4.422;2023-01-19T02:13:48;5.51;82.95
68943;DHT22;60852;52.190;4.422;2023-01-19T02:16:15;5.38;81.82
68943;DHT22;60852;52.190;4.422;2023-01-19T02:18:41;5.45;81.53
68943;DHT22;60852;52.190;4.422;2023-01-19T02:21:22;5.51;81.05
68943;DHT22;60852;52.190;4.422;2023-01-19T02:23:52;5.58;80.36
68943;DHT22;60852;52.190;4.422;2023-01-19T02:26:22;5.65;80.29
68943;DHT22;60852;52.190;4.422;2023-01-19T02:28:55;5.76;79.92
68943;DHT22;60852;52.190;4.422;2023-01-19T02:31:24;5.91;79.18
68943;DHT22;60852;52.190;4.422;2023-01-19T02:33:51;6.01;78.93
68943;DHT22;60852;52.190;4.422;2023-01-19T02:36:22;6.10;78.77
68943;DHT22;60852;52.190;4.422;2023-01-19T02:38:52;6.10;79.85
68943;DHT22;60852;52.190;4.422;2023-01-19T02:41:26;6.05;81.09
68943;DHT22;60852;52.190;4.422;2023-01-19T02:43:56;5.91;81.73
68943;DHT22;60852;52.190;4.422;2023-01-19T02:46:22;5.88;81.80
68943;DHT22;60852;52.190;4.422;2023-01-19T02:48:48;5.45;81.97
68943;DHT22;60852;52.190;4.422;2023-01-19T02:51:17;5.41;82.46
68943;DHT22;60852;52.190;4.422;2023-01-19T02:59:09;5.26;83.07
68943;DHT22;60852;52.190;4.422;2023-01-19T03:10:58;5.66;81.73
68943;DHT22;60852;52.190;4.422;2023-01-19T03:13:53;5.74;81.18
68943;DHT22;60852;52.190;4.422;2023-01-19T03:16:46;5.91;80.34
68943;DHT22;60852;52.190;4.422;2023-01-19T03:19:35;6.01;78.08
68943;DHT22;60852;52.190;4.422;2023-01-19T03:22:10;6.19;76.67
68943;DHT22;60852;52.190;4.422;2023-01-19T03:24:41;6.33;76.96
68943;DHT22;60852;52.190;4.422;2023-01-19T03:27:26;6.20;77.79
68943;DHT22;60852;52.190;4.422;2023-01-19T03:29:58;6.22;77.75
68943;DHT22;60852;52.190;4.422;2023-01-19T03:32:33;6.29;77.54
68943;DHT22;60852;52.190;4.422;2023-01-19T03:35:04;6.29;77.81
68943;DHT22;60852;52.190;4.422;2023-01-19T03:37:38;6.32;77.91
68943;DHT22;60852;52.190;4.422;2023-01-19T03:40:04;6.29;77.10
68943;DHT22;60852;52.190;4.422;2023-01-19T03:42:31;6.36;76.99
68943;DHT22;60852;52.190;4.422;2023-01-19T03:45:00;6.40;76.27
68943;DHT22;60852;52.190;4.422;2023-01-19T03:47:27;6.40;77.01
68943;DHT22;60852;52.190;4.422;2023-01-19T03:49:55;6.44;76.89
68943;DHT22;60852;52.190;4.422;2023-01-19T03:52:31;6.36;76.72
68943;DHT22;60852;52.190;4.422;2023-01-19T03:55:03;6.33;76.40
68943;DHT22;60852;52.190;4.422;2023-01-19T03:57:30;6.34;75.87
68943;DHT22;60852;52.190;4.422;2023-01-19T03:59:56;6.33;75.06
68943;DHT22;60852;52.190;4.422;2023-01-19T04:02:23;6.37;73.44
68943;DHT22;60852;52.190;4.422;2023-01-19T04:04:49;6.41;73.19
68943;DHT22;60852;52.190;4.422;2023-01-19T04:07:14;6.44;73.02
68943;DHT22;60852;52.190;4.422;2023-01-19T04:09:40;6.48;73.56
68943;DHT22;60852;52.190;4.422;2023-01-19T04:12:05;6.47;74.63
68943;DHT22;60852;52.190;4.422;2023-01-19T04:14:31;6.51;74.74
68943;DHT22;60852;52.190;4.422;2023-01-19T04:16:56;6.51;73.65
68943;DHT22;60852;52.190;4.422;2023-01-19T04:19:22;6.50;73.72
68943;DHT22;60852;52.190;4.422;2023-01-19T04:21:48;6.53;73.36
68943;DHT22;60852;52.190;4.422;2023-01-19T04:24:16;6.51;73.05
68943;DHT22;60852;52.190;4.422;2023-01-19T04:26:42;6.55;73.75
68943;DHT22;60852;52.190;4.422;2023-01-19T04:29:08;6.58;73.04
68943;DHT22;60852;52.190;4.422;2023-01-19T04:31:34;6.61;73.22
68943;DHT22;60852;52.190;4.422;2023-01-19T04:34:02;6.71;73.68
68943;DHT22;60852;52.190;4.422;2023-01-19T04:36:27;6.65;72.79
68943;DHT22;60852;52.190;4.422;2023-01-19T04:38:53;6.54;72.70
68943;DHT22;60852;52.190;4.422;2023-01-19T04:41:19;6.64;72.73
68943;DHT22;60852;52.190;4.422;2023-01-19T04:43:44;6.67;72.41
68943;DHT22;60852;52.190;4.422;2023-01-19T04:46:12;6.60;71.33
68943;DHT22;60852;52.190;4.422;2023-01-19T04:48:38;6.67;71.40
68943;DHT22;60852;52.190;4.422;2023-01-19T04:51:03;6.70;71.69
68943;DHT22;60852;52.190;4.422;2023-01-19T04:53:29;6.65;72.24
68943;DHT22;60852;52.190;4.422;2023-01-19T04:55:54;6.74;72.26
68943;DHT22;60852;52.190;4.422;2023-01-19T04:58:20;6.81;72.60
68943;DHT22;60852;52.190;4.422;2023-01-19T05:00:46;6.83;72.22
68943;DHT22;60852;52.190;4.422;2023-01-19T05:03:11;6.81;69.59
68943;DHT22;60852;52.190;4.422;2023-01-19T05:05:36;6.77;68.59
68943;DHT22;60852;52.190;4.422;2023-01-19T05:08:02;6.77;68.15
68943;DHT22;60852;52.190;4.422;2023-01-19T05:10:28;6.85;69.50
68943;DHT22;60852;52.190;4.422;2023-01-19T05:12:54;6.85;70.39
68943;DHT22;60852;52.190;4.422;2023-01-19T05:15:19;6.83;69.64
68943;DHT22;60852;52.190;4.422;2023-01-19T05:17:45;6.74;69.37
68943;DHT22;60852;52.190;4.422;2023-01-19T05:20:11;6.80;68.83
68943;DHT22;60852;52.190;4.422;2023-01-19T05:22:37;6.74;68.11
68943;DHT22;60852;52.190;4.422;2023-01-19T05:25:04;6.78;67.26
68943;DHT22;60852;52.190;4.422;2023-01-19T05:27:30;6.83;67.57
68943;DHT22;60852;52.190;4.422;2023-01-19T05:29:55;6.87;68.16
68943;DHT22;60852;52.190;4.422;2023-01-19T05:32:21;6.94;68.10
68943;DHT22;60852;52.190;4.422;2023-01-19T05:34:46;6.84;67.65
68943;DHT22;60852;52.190;4.422;2023-01-19T05:37:12;6.85;68.49
68943;DHT22;60852;52.190;4.422;2023-01-19T05:39:38;6.91;68.94
68943;DHT22;60852;52.190;4.422;2023-01-19T05:42:03;6.92;68.79
68943;DHT22;60852;52.190;4.422;2023-01-19T05:44:29;6.73;67.91
68943;DHT22;60852;52.190;4.422;2023-01-19T05:46:54;6.80;66.84
68943;DHT22;60852;52.190;4.422;2023-01-19T05:49:20;6.85;67.85
68943;DHT22;60852;52.190;4.422;2023-01-19T05:51:45;6.85;67.20
68943;DHT22;60852;52.190;4.422;2023-01-19T05:54:12;6.85;66.94
68943;DHT22;60852;52.190;4.422;2023-01-19T05:56:42;6.78;68.48
68943;DHT22;60852;52.190;4.422;2023-01-19T05:59:08;6.85;69.51
68943;DHT22;60852;52.190;4.422;2023-01-19T06:01:34;6.87;70.12
68943;DHT22;60852;52.190;4.422;2023-01-19T06:04:01;6.74;70.63
68943;DHT22;60852;52.190;4.422;2023-01-19T06:06:26;6.71;71.58
68943;DHT22;60852;52.190;4.422;2023-01-19T06:08:52;6.70;71.78
68943;DHT22;60852;52.190;4.422;2023-01-19T06:11:18;6.67;71.87
68943;DHT22;60852;52.190;4.422;2023-01-19T06:13:43;6.55;72.65
68943;DHT22;60852;52.190;4.422;2023-01-19T06:16:09;6.61;73.04
68943;DHT22;60852;52.190;4.422;2023-01-19T06:18:35;6.57;73.25
68943;DHT22;60852;52.190;4.422;2023-01-19T06:21:03;6.61;73.63
68943;DHT22;60852;52.190;4.422;2023-01-19T06:23:30;6.48;74.53
68943;DHT22;60852;52.190;4.422;2023-01-19T06:25:56;6.53;74.60
68943;DHT22;60852;52.190;4.422;2023-01-19T06:28:22;6.48;74.62
68943;DHT22;60852;52.190;4.422;2023-01-19T06:30:49;6.54;74.60
68943;DHT22;60852;52.190;4.422;2023-01-19T06:33:16;6.48;73.99
68943;DHT22;60852;52.190;4.422;2023-01-19T06:35:43;6.44;73.29
68943;DHT22;60852;52.190;4.422;2023-01-19T06:38:08;6.54;72.21
68943;DHT22;60852;52.190;4.422;2023-01-19T06:40:34;6.58;71.19
68943;DHT22;60852;52.190;4.422;2023-01-19T06:42:59;6.65;70.64
68943;DHT22;60852;52.190;4.422;2023-01-19T06:45:24;6.71;69.37
68943;DHT22;60852;52.190;4.422;2023-01-19T06:47:50;6.73;68.81
68943;DHT22;60852;52.190;4.422;2023-01-19T06:50:15;6.80;68.56
68943;DHT22;60852;52.190;4.422;2023-01-19T06:52:41;6.78;66.80
68943;DHT22;60852;52.190;4.422;2023-01-19T06:55:10;6.75;64.19
68943;DHT22;60852;52.190;4.422;2023-01-19T06:57:39;6.71;64.65
68943;DHT22;60852;52.190;4.422;2023-01-19T07:00:05;6.61;65.30
68943;DHT22;60852;52.190;4.422;2023-01-19T07:02:34;6.51;63.56
68943;DHT22;60852;52.190;4.422;2023-01-19T07:05:00;6.51;63.38
68943;DHT22;60852;52.190;4.422;2023-01-19T07:07:25;6.55;63.94
68943;DHT22;60852;52.190;4.422;2023-01-19T07:09:51;6.58;64.55
68943;DHT22;60852;52.190;4.422;2023-01-19T07:12:17;6.61;65.94
68943;DHT22;60852;52.190;4.422;2023-01-19T07:14:42;6.63;65.51
68943;DHT22;60852;52.190;4.422;2023-01-19T07:17:08;6.63;66.73
68943;DHT22;60852;52.190;4.422;2023-01-19T07:19:34;6.60;69.26
68943;DHT22;60852;52.190;4.422;2023-01-19T07:22:00;6.30;71.67
68943;DHT22;60852;52.190;4.422;2023-01-19T07:24:25;6.25;71.82
68943;DHT22;60852;52.190;4.422;2023-01-19T07:26:51;6.25;72.50
68943;DHT22;60852;52.190;4.422;2023-01-19T07:29:16;6.26;73.09
68943;DHT22;60852;52.190;4.422;2023-01-19T07:31:42;6.17;72.30
68943;DHT22;60852;52.190;4.422;2023-01-19T07:34:07;6.13;72.62
68943;DHT22;60852;52.190;4.422;2023-01-19T07:36:32;6.13;72.80
68943;DHT22;60852;52.190;4.422;2023-01-19T07:38:58;6.05;73.16
68943;DHT22;60852;52.190;4.422;2023-01-19T07:41:23;6.10;73.45
68943;DHT22;60852;52.190;4.422;2023-01-19T07:43:49;6.05;74.30
68943;DHT22;60852;52.190;4.422;2023-01-19T07:46:15;5.89;74.37
68943;DHT22;60852;52.190;4.422;2023-01-19T07:48:41;6.02;74.24
68943;DHT22;60852;52.190;4.422;2023-01-19T07:51:09;6.13;71.93
68943;DHT22;60852;52.190;4.422;2023-01-19T07:53:37;6.09;67.52
68943;DHT22;60852;52.190;4.422;2023-01-19T07:56:02;6.20;66.79
68943;DHT22;60852;52.190;4.422;2023-01-19T07:58:31;6.25;65.52
68943;DHT22;60852;52.190;4.422;2023-01-19T08:00:57;6.27;64.70
68943;DHT22;60852;52.190;4.422;2023-01-19T08:03:22;6.26;65.22
68943;DHT22;60852;52.190;4.422;2023-01-19T08:05:50;6.29;65.51
68943;DHT22;60852;52.190;4.422;2023-01-19T08:08:16;6.36;66.03
68943;DHT22;60852;52.190;4.422;2023-01-19T08:10:42;6.33;67.74
68943;DHT22;60852;52.190;4.422;2023-01-19T08:13:08;6.41;67.55
68943;DHT22;60852;52.190;4.422;2023-01-19T08:15:33;6.41;67.36
68943;DHT22;60852;52.190;4.422;2023-01-19T08:18:00;6.41;66.85
68943;DHT22;60852;52.190;4.422;2023-01-19T08:20:27;6.33;64.82
68943;DHT22;60852;52.190;4.422;2023-01-19T08:22:53;6.37;64.83
68943;DHT22;60852;52.190;4.422;2023-01-19T08:27:59;6.32;63.80
68943;DHT22;60852;52.190;4.422;2023-01-19T08:30:24;6.30;63.36
68943;DHT22;60852;52.190;4.422;2023-01-19T08:32:54;6.27;63.06
68943;DHT22;60852;52.190;4.422;2023-01-19T08:35:30;6.37;64.63
68943;DHT22;60852;52.190;4.422;2023-01-19T08:37:56;6.38;64.19
68943;DHT22;60852;52.190;4.422;2023-01-19T08:40:26;6.40;63.88
68943;DHT22;60852;52.190;4.422;2023-01-19T08:42:52;6.48;64.03
68943;DHT22;60852;52.190;4.422;2023-01-19T08:45:17;6.51;63.38
68943;DHT22;60852;52.190;4.422;2023-01-19T08:47:43;6.51;63.29
68943;DHT22;60852;52.190;4.422;2023-01-19T08:50:09;6.46;61.64
68943;DHT22;60852;52.190;4.422;2023-01-19T08:52:34;6.37;61.69
68943;DHT22;60852;52.190;4.422;2023-01-19T08:55:00;6.43;61.30
68943;DHT22;60852;52.190;4.422;2023-01-19T08:57:26;6.43;61.55
68943;DHT22;60852;52.190;4.422;2023-01-19T08:59:51;6.44;61.15
68943;DHT22;60852;52.190;4.422;2023-01-19T09:02:17;6.37;61.18
68943;DHT22;60852;52.190;4.422;2023-01-19T09:04:42;6.19;61.52
68943;DHT22;60852;52.190;4.422;2023-01-19T09:07:08;6.02;61.29
68943;DHT22;60852;52.190;4.422;2023-01-19T09:09:34;5.98;62.23
68943;DHT22;60852;52.190;4.422;2023-01-19T09:12:02;5.99;60.17
68943;DHT22;60852;52.190;4.422;2023-01-19T09:14:27;6.07;60.54
68943;DHT22;60852;52.190;4.422;2023-01-19T09:16:53;6.29;60.41
68943;DHT22;60852;52.190;4.422;2023-01-19T09:19:20;6.43;60.39
68943;DHT22;60852;52.190;4.422;2023-01-19T09:21:45;6.50;61.39
68943;DHT22;60852;52.190;4.422;2023-01-19T09:24:11;6.46;63.00
68943;DHT22;60852;52.190;4.422;2023-01-19T09:26:36;6.44;62.79
68943;DHT22;60852;52.190;4.422;2023-01-19T09:29:03;6.22;64.28
68943;DHT22;60852;52.190;4.422;2023-01-19T09:31:28;6.27;65.61
68943;DHT22;60852;52.190;4.422;2023-01-19T09:33:54;6.41;65.00
68943;DHT22;60852;52.190;4.422;2023-01-19T09:36:19;6.48;63.60
68943;DHT22;60852;52.190;4.422;2023-01-19T09:38:45;6.54;62.35
68943;DHT22;60852;52.190;4.422;2023-01-19T09:41:19;6.53;60.99
68943;DHT22;60852;52.190;4.422;2023-01-19T09:43:56;6.50;60.92
68943;DHT22;60852;52.190;4.422;2023-01-19T09:46:38;6.54;61.14
68943;DHT22;60852;52.190;4.422;2023-01-19T09:49:15;6.48;60.33
68943;DHT22;60852;52.190;4.422;2023-01-19T09:51:46;6.41;59.19
68943;DHT22;60852;52.190;4.422;2023-01-19T09:54:12;6.48;59.61
68943;DHT22;60852;52.190;4.422;2023-01-19T09:56:40;6.47;60.00
68943;DHT22;60852;52.190;4.422;2023-01-19T09:59:24;6.65;61.22
68943;DHT22;60852;52.190;4.422;2023-01-19T10:10:35;6.89;60.98
68943;DHT22;60852;52.190;4.422;2023-01-19T10:15:52;6.80;61.78
68943;DHT22;60852;52.190;4.422;2023-01-19T10:18:46;6.78;60.89
68943;DHT22;60852;52.190;4.422;2023-01-19T10:23:52;6.87;60.37
68943;DHT22;60852;52.190;4.422;2023-01-19T10:26:25;6.84;61.00
68943;DHT22;60852;52.190;4.422;2023-01-19T10:29:01;6.89;61.61
68943;DHT22;60852;52.190;4.422;2023-01-19T10:31:27;6.88;62.08
68943;DHT22;60852;52.190;4.422;2023-01-19T10:33:52;6.99;61.95
68943;DHT22;60852;52.190;4.422;2023-01-19T10:36:23;7.02;62.72
68943;DHT22;60852;52.190;4.422;2023-01-19T10:38:50;7.15;63.21
68943;DHT22;60852;52.190;4.422;2023-01-19T10:41:34;7.08;62.16
68943;DHT22;60852;52.190;4.422;2023-01-19T10:44:01;7.11;62.61
68943;DHT22;60852;52.190;4.422;2023-01-19T10:46:45;7.25;61.30
68943;DHT22;60852;52.190;4.422;2023-01-19T10:49:28;7.69;60.89
68943;DHT22;60852;52.190;4.422;2023-01-19T10:51:57;8.06;59.48
68943;DHT22;60852;52.190;4.422;2023-01-19T10:54:25;8.18;58.27
68943;DHT22;60852;52.190;4.422;2023-01-19T10:56:58;8.14;58.17
68943;DHT22;60852;52.190;4.422;2023-01-19T11:02:22;7.54;58.96
68943;DHT22;60852;52.190;4.422;2023-01-19T11:04:52;7.66;58.88
68943;DHT22;60852;52.190;4.422;2023-01-19T11:07:26;7.75;58.54
68943;DHT22;60852;52.190;4.422;2023-01-19T11:15:23;7.57;58.77
68943;DHT22;60852;52.190;4.422;2023-01-19T11:17:49;7.46;58.03
68943;DHT22;60852;52.190;4.422;2023-01-19T11:20:29;7.29;58.64
68943;DHT22;60852;52.190;4.422;2023-01-19T11:25:45;7.19;59.07
68943;DHT22;60852;52.190;4.422;2023-01-19T11:28:34;7.23;58.54
68943;DHT22;60852;52.190;4.422;2023-01-19T11:31:16;7.19;58.54
68943;DHT22;60852;52.190;4.422;2023-01-19T11:38:45;7.09;58.10
68943;DHT22;60852;52.190;4.422;2023-01-19T11:44:04;7.02;57.83
68943;DHT22;60852;52.190;4.422;2023-01-19T11:46:38;7.14;57.73
68943;DHT22;60852;52.190;4.422;2023-01-19T11:49:24;7.25;58.00
68943;DHT22;60852;52.190;4.422;2023-01-19T11:55:20;7.16;56.90
68943;DHT22;60852;52.190;4.422;2023-01-19T11:57:38;7.27;57.42
68943;DHT22;60852;52.190;4.422;2023-01-19T12:00:35;7.30;57.47
68943;DHT22;60852;52.190;4.422;2023-01-19T12:03:22;7.30;56.11
68943;DHT22;60852;52.190;4.422;2023-01-19T12:05:52;7.29;58.36
68943;DHT22;60852;52.190;4.422;2023-01-19T12:08:24;7.29;57.49
68943;DHT22;60852;52.190;4.422;2023-01-19T12:10:56;7.27;58.21
68943;DHT22;60852;52.190;4.422;2023-01-19T12:13:25;7.18;56.85
68943;DHT22;60852;52.190;4.422;2023-01-19T12:16:08;7.18;58.07
68943;DHT22;60852;52.190;4.422;2023-01-19T12:18:48;7.18;57.37
68943;DHT22;60852;52.190;4.422;2023-01-19T12:21:14;7.26;57.65
68943;DHT22;60852;52.190;4.422;2023-01-19T12:26:52;7.30;57.21
68943;DHT22;60852;52.190;4.422;2023-01-19T12:29:23;7.29;57.22
68943;DHT22;60852;52.190;4.422;2023-01-19T12:34:43;7.33;57.94
68943;DHT22;60852;52.190;4.422;2023-01-19T12:39:53;7.46;57.51
68943;DHT22;60852;52.190;4.422;2023-01-19T12:42:19;7.43;58.00
68943;DHT22;60852;52.190;4.422;2023-01-19T12:44:46;7.43;57.60
68943;DHT22;60852;52.190;4.422;2023-01-19T12:49:46;7.56;57.89
68943;DHT22;60852;52.190;4.422;2023-01-19T13:13:23;7.49;57.45
68943;DHT22;60852;52.190;4.422;2023-01-19T13:15:49;7.46;57.23
68943;DHT22;60852;52.190;4.422;2023-01-19T13:18:37;7.56;57.29
68943;DHT22;60852;52.190;4.422;2023-01-19T13:21:06;7.63;58.00
68943;DHT22;60852;52.190;4.422;2023-01-19T13:23:53;7.57;57.28
68943;DHT22;60852;52.190;4.422;2023-01-19T13:26:26;7.47;57.73
68943;DHT22;60852;52.190;4.422;2023-01-19T13:29:05;7.40;58.06
68943;DHT22;60852;52.190;4.422;2023-01-19T13:31:36;7.44;58.71
68943;DHT22;60852;52.190;4.422;2023-01-19T13:34:11;7.54;58.07
68943;DHT22;60852;52.190;4.422;2023-01-19T13:36:43;7.60;58.18
68943;DHT22;60852;52.190;4.422;2023-01-19T13:39:20;7.67;57.82
68943;DHT22;60852;52.190;4.422;2023-01-19T13:41:48;7.62;57.54
68943;DHT22;60852;52.190;4.422;2023-01-19T13:44:29;7.60;57.89
68943;DHT22;60852;52.190;4.422;2023-01-19T13:46:56;7.50;56.94
68943;DHT22;60852;52.190;4.422;2023-01-19T13:54:57;7.25;57.88
68943;DHT22;60852;52.190;4.422;2023-01-19T13:57:32;7.30;57.70
68943;DHT22;60852;52.190;4.422;2023-01-19T14:13:14;7.15;56.32
68943;DHT22;60852;52.190;4.422;2023-01-19T14:15:40;7.14;57.44
68943;DHT22;60852;52.190;4.422;2023-01-19T14:18:23;7.15;57.24
68943;DHT22;60852;52.190;4.422;2023-01-19T14:21:00;7.18;57.17
68943;DHT22;60852;52.190;4.422;2023-01-19T14:26:03;7.08;57.34
68943;DHT22;60852;52.190;4.422;2023-01-19T14:28:33;7.05;58.14
68943;DHT22;60852;52.190;4.422;2023-01-19T14:33:47;6.74;59.70
68943;DHT22;60852;52.190;4.422;2023-01-19T14:38:43;6.74;59.10
68943;DHT22;60852;52.190;4.422;2023-01-19T14:41:10;6.64;58.80
68943;DHT22;60852;52.190;4.422;2023-01-19T14:43:36;6.50;59.98
68943;DHT22;60852;52.190;4.422;2023-01-19T14:46:07;6.57;60.16
68943;DHT22;60852;52.190;4.422;2023-01-19T14:48:48;6.63;60.12
68943;DHT22;60852;52.190;4.422;2023-01-19T14:51:20;6.51;60.04
68943;DHT22;60852;52.190;4.422;2023-01-19T14:53:53;6.47;60.47
68943;DHT22;60852;52.190;4.422;2023-01-19T14:56:27;6.47;60.28
68943;DHT22;60852;52.190;4.422;2023-01-19T14:58:58;6.53;60.48
68943;DHT22;60852;52.190;4.422;2023-01-19T15:01:26;6.58;61.18
68943;DHT22;60852;52.190;4.422;2023-01-19T15:03:56;6.46;62.14
68943;DHT22;60852;52.190;4.422;2023-01-19T15:06:24;6.40;62.28
68943;DHT22;60852;52.190;4.422;2023-01-19T15:08:50;6.36;62.08
68943;DHT22;60852;52.190;4.422;2023-01-19T15:11:32;6.27;62.05
68943;DHT22;60852;52.190;4.422;2023-01-19T15:13:59;6.26;61.57
68943;DHT22;60852;52.190;4.422;2023-01-19T15:16:27;6.20;61.93
68943;DHT22;60852;52.190;4.422;2023-01-19T15:18:54;6.16;62.29
68943;DHT22;60852;52.190;4.422;2023-01-19T15:21:21;6.17;62.40
68943;DHT22;60852;52.190;4.422;2023-01-19T15:23:51;6.26;62.27
68943;DHT22;60852;52.190;4.422;2023-01-19T15:26:20;6.17;61.12
68943;DHT22;60852;52.190;4.422;2023-01-19T15:28:47;6.15;61.35
68943;DHT22;60852;52.190;4.422;2023-01-19T15:31:19;6.26;61.13
68943;DHT22;60852;52.190;4.422;2023-01-19T15:33:45;6.20;61.79
68943;DHT22;60852;52.190;4.422;2023-01-19T15:36:17;6.15;61.47
68943;DHT22;60852;52.190;4.422;2023-01-19T15:38:43;6.17;60.88
68943;DHT22;60852;52.190;4.422;2023-01-19T15:41:12;6.22;60.74
68943;DHT22;60852;52.190;4.422;2023-01-19T15:43:38;6.29;60.33
68943;DHT22;60852;52.190;4.422;2023-01-19T15:46:05;6.29;60.06
68943;DHT22;60852;52.190;4.422;2023-01-19T15:48:31;6.22;60.08
68943;DHT22;60852;52.190;4.422;2023-01-19T15:50:57;6.13;60.23
68943;DHT22;60852;52.190;4.422;2023-01-19T15:53:22;6.10;60.27
68943;DHT22;60852;52.190;4.422;2023-01-19T15:55:50;6.13;60.48
68943;DHT22;60852;52.190;4.422;2023-01-19T15:58:17;6.15;60.70
68943;DHT22;60852;52.190;4.422;2023-01-19T16:00:45;6.17;61.19
68943;DHT22;60852;52.190;4.422;2023-01-19T16:03:16;6.23;61.56
68943;DHT22;60852;52.190;4.422;2023-01-19T16:05:41;6.26;62.14
68943;DHT22;60852;52.190;4.422;2023-01-19T16:08:07;6.25;62.12
68943;DHT22;60852;52.190;4.422;2023-01-19T16:10:34;6.23;62.22
68943;DHT22;60852;52.190;4.422;2023-01-19T16:12:59;6.23;62.21
68943;DHT22;60852;52.190;4.422;2023-01-19T16:15:25;6.25;62.34
68943;DHT22;60852;52.190;4.422;2023-01-19T16:17:51;6.20;62.44
68943;DHT22;60852;52.190;4.422;2023-01-19T16:20:17;6.22;62.63
68943;DHT22;60852;52.190;4.422;2023-01-19T16:22:42;6.23;62.84
68943;DHT22;60852;52.190;4.422;2023-01-19T16:25:08;6.23;63.12
68943;DHT22;60852;52.190;4.422;2023-01-19T16:27:33;6.25;64.09
68943;DHT22;60852;52.190;4.422;2023-01-19T16:29:59;6.27;64.63
68943;DHT22;60852;52.190;4.422;2023-01-19T16:32:32;6.26;65.98
68943;DHT22;60852;52.190;4.422;2023-01-19T16:34:59;6.15;66.09
68943;DHT22;60852;52.190;4.422;2023-01-19T16:37:24;6.02;66.84
68943;DHT22;60852;52.190;4.422;2023-01-19T16:39:50;5.86;67.04
68943;DHT22;60852;52.190;4.422;2023-01-19T16:42:16;5.79;67.19
68943;DHT22;60852;52.190;4.422;2023-01-19T16:44:41;5.78;67.17
68943;DHT22;60852;52.190;4.422;2023-01-19T16:47:07;5.71;67.64
68943;DHT22;60852;52.190;4.422;2023-01-19T16:49:33;5.65;67.70
68943;DHT22;60852;52.190;4.422;2023-01-19T16:51:59;5.59;68.18
68943;DHT22;60852;52.190;4.422;2023-01-19T16:54:26;5.54;68.56
68943;DHT22;60852;52.190;4.422;2023-01-19T16:56:53;5.52;68.89
68943;DHT22;60852;52.190;4.422;2023-01-19T16:59:19;5.44;69.07
68943;DHT22;60852;52.190;4.422;2023-01-19T17:01:46;5.31;69.82
68943;DHT22;60852;52.190;4.422;2023-01-19T17:04:13;5.20;70.49
68943;DHT22;60852;52.190;4.422;2023-01-19T17:06:38;5.12;71.06
68943;DHT22;60852;52.190;4.422;2023-01-19T17:09:04;4.99;71.69
68943;DHT22;60852;52.190;4.422;2023-01-19T17:11:32;4.92;72.09
68943;DHT22;60852;52.190;4.422;2023-01-19T17:14:01;4.86;72.55
68943;DHT22;60852;52.190;4.422;2023-01-19T17:16:29;4.76;72.95
68943;DHT22;60852;52.190;4.422;2023-01-19T17:18:59;4.72;73.26
68943;DHT22;60852;52.190;4.422;2023-01-19T17:21:26;4.69;73.39
68943;DHT22;60852;52.190;4.422;2023-01-19T17:23:53;4.62;73.64
68943;DHT22;60852;52.190;4.422;2023-01-19T17:26:20;4.64;73.67
68943;DHT22;60852;52.190;4.422;2023-01-19T17:28:46;4.66;73.74
68943;DHT22;60852;52.190;4.422;2023-01-19T17:31:15;4.72;73.66
68943;DHT22;60852;52.190;4.422;2023-01-19T17:33:43;4.77;73.55
68943;DHT22;60852;52.190;4.422;2023-01-19T17:36:11;4.79;73.53
68943;DHT22;60852;52.190;4.422;2023-01-19T17:38:38;4.77;73.46
68943;DHT22;60852;52.190;4.422;2023-01-19T17:41:36;4.75;73.74
68943;DHT22;60852;52.190;4.422;2023-01-19T17:44:03;4.75;73.97
68943;DHT22;60852;52.190;4.422;2023-01-19T17:46:30;4.62;74.35
68943;DHT22;60852;52.190;4.422;2023-01-19T17:48:58;4.41;75.35